Time;durP1;ratioP1;P1;durP2;ratioP2;P2;SDS_P1;SDS_P2;PMS_P1;PMS_P2;Temp;Humidity;BMP_temperature;BMP_pressure;BME280_temperature;BME280_humidity;BME280_pressure;Samples;Min_cycle;Max_cycle;Signal;HPM_P1;HPM_P2
2024/01/14 00:01:45;;;;;;;39.53;14.23;;;5.50;99.90;;;;;;5039065;28;20084;-89
2024/01/14 00:04:11;;;;;;;40.15;14.05;;;5.60;99.90;;;;;;5036418;28;20567;-89
2024/01/14 00:06:36;;;;;;;37.83;13.85;;;5.50;99.90;;;;;;5017244;28;20027;-89
2024/01/14 00:09:02;;;;;;;39.65;13.85;;;5.50;99.90;;;;;;5016522;28;20021;-89
2024/01/14 00:11:27;;;;;;;45.85;13.70;;;5.60;99.90;;;;;;5024972;28;20031;-89
2024/01/14 00:13:53;;;;;;;40.38;13.15;;;5.50;99.90;;;;;;5032225;28;20025;-89
2024/01/14 00:16:18;;;;;;;37.78;12.43;;;5.50;99.90;;;;;;5034069;28;20042;-89
2024/01/14 00:18:44;;;;;;;40.47;13.10;;;5.50;99.90;;;;;;5022551;28;20075;-88
2024/01/14 00:21:10;;;;;;;39.40;12.70;;;5.50;99.90;;;;;;5024045;28;20051;-89
2024/01/14 00:23:35;;;;;;;47.25;13.13;;;5.50;99.90;;;;;;5016883;28;20488;-89
2024/01/14 00:26:01;;;;;;;49.85;15.27;;;5.50;99.90;;;;;;5033959;28;20022;-89
2024/01/14 00:28:27;;;;;;;41.70;13.45;;;5.50;99.90;;;;;;5044510;28;20021;-89
2024/01/14 00:30:53;;;;;;;40.33;13.48;;;5.50;99.90;;;;;;5016398;28;20018;-90
2024/01/14 00:33:18;;;;;;;41.80;11.90;;;5.60;99.90;;;;;;5016033;28;20021;-89
2024/01/14 00:35:44;;;;;;;43.70;13.25;;;5.50;99.90;;;;;;5033870;28;20387;-89
2024/01/14 00:38:10;;;;;;;44.40;14.15;;;5.50;99.90;;;;;;5016129;28;20030;-89
2024/01/14 00:40:37;;;;;;;42.60;14.27;;;5.50;99.90;;;;;;5015879;28;20036;-89
2024/01/14 00:43:03;;;;;;;43.00;14.20;;;5.50;99.90;;;;;;5014603;28;20052;-89
2024/01/14 00:45:28;;;;;;;42.75;12.65;;;5.50;99.90;;;;;;5043129;28;20025;-89
2024/01/14 00:47:54;;;;;;;38.33;14.38;;;5.50;99.90;;;;;;5016182;28;20100;-90
2024/01/14 00:50:20;;;;;;;36.47;14.38;;;5.50;99.90;;;;;;5016417;28;20028;-89
2024/01/14 00:52:45;;;;;;;48.25;13.52;;;5.50;99.90;;;;;;5026011;28;20017;-89
2024/01/14 00:55:11;;;;;;;47.05;14.15;;;5.50;99.90;;;;;;5016625;28;20061;-89
2024/01/14 00:57:37;;;;;;;44.38;12.93;;;5.50;99.90;;;;;;5015567;28;20025;-89
2024/01/14 01:00:03;;;;;;;40.65;13.57;;;5.50;99.90;;;;;;5015881;28;20112;-88
2024/01/14 01:02:29;;;;;;;41.90;13.35;;;5.50;99.90;;;;;;5015482;28;20479;-89
2024/01/14 01:04:54;;;;;;;40.60;13.60;;;5.50;99.90;;;;;;5023689;28;20116;-89
2024/01/14 01:07:20;;;;;;;37.55;12.68;;;5.50;99.90;;;;;;5023705;28;20127;-89
2024/01/14 01:09:46;;;;;;;36.88;13.32;;;5.50;99.90;;;;;;5033494;28;20013;-89
2024/01/14 01:12:11;;;;;;;42.00;15.25;;;5.50;99.90;;;;;;5033331;28;20025;-88
2024/01/14 01:14:37;;;;;;;43.78;13.30;;;5.50;99.90;;;;;;5041419;28;20032;-89
2024/01/14 01:17:04;;;;;;;41.63;12.55;;;5.50;99.90;;;;;;5038878;28;20033;-90
2024/01/14 01:19:30;;;;;;;38.03;12.95;;;5.50;99.90;;;;;;5034947;28;20022;-89
2024/01/14 01:21:55;;;;;;;41.05;13.43;;;5.50;99.90;;;;;;5041171;28;20032;-87
2024/01/14 01:24:21;;;;;;;30.60;12.98;;;5.50;99.90;;;;;;5015193;28;20025;-89
2024/01/14 01:26:46;;;;;;;35.97;12.93;;;5.50;99.90;;;;;;5019042;28;20068;-89
2024/01/14 01:29:12;;;;;;;45.65;14.02;;;5.50;99.90;;;;;;5023488;28;20049;-89
2024/01/14 01:31:37;;;;;;;43.00;14.38;;;5.50;99.90;;;;;;5021293;28;20483;-89
2024/01/14 01:34:03;;;;;;;41.60;14.05;;;5.50;99.90;;;;;;5015279;28;20480;-89
2024/01/14 01:36:29;;;;;;;37.50;12.88;;;5.50;99.90;;;;;;5029851;28;20499;-89
2024/01/14 01:38:54;;;;;;;47.40;15.05;;;5.50;99.90;;;;;;5039651;28;20080;-88
2024/01/14 01:41:22;;;;;;;43.22;12.55;;;5.50;99.90;;;;;;5014931;28;20029;-90
2024/01/14 01:43:47;;;;;;;38.47;12.93;;;5.50;99.90;;;;;;5020258;28;20553;-89
2024/01/14 01:46:13;;;;;;;37.75;12.65;;;5.40;99.90;;;;;;5032534;28;20045;-89
2024/01/14 01:48:38;;;;;;;39.97;13.05;;;5.40;99.90;;;;;;5022711;28;20571;-89
2024/01/14 01:51:05;;;;;;;43.13;12.77;;;5.40;99.90;;;;;;5035913;28;20079;-88
2024/01/14 01:53:31;;;;;;;41.08;12.23;;;5.40;99.90;;;;;;5014459;28;20017;-89
2024/01/14 01:55:57;;;;;;;43.85;13.75;;;5.40;99.90;;;;;;5014370;28;20028;-90
2024/01/14 01:58:22;;;;;;;36.08;12.95;;;5.40;99.90;;;;;;5032387;28;20021;-89
2024/01/14 02:00:50;;;;;;;41.90;12.88;;;5.40;99.90;;;;;;5015610;28;20533;-88
2024/01/14 02:03:16;;;;;;;45.97;14.05;;;5.40;99.90;;;;;;5031082;28;20029;-90
2024/01/14 02:05:44;;;;;;;44.33;13.38;;;5.40;99.90;;;;;;5014419;28;20025;-89
2024/01/14 02:08:10;;;;;;;40.78;13.52;;;5.40;99.90;;;;;;5014840;28;20118;-89
2024/01/14 02:10:36;;;;;;;38.28;13.50;;;5.40;99.90;;;;;;5015609;28;20033;-89
2024/01/14 02:13:03;;;;;;;39.08;13.27;;;5.40;99.90;;;;;;5013665;28;20022;-89
2024/01/14 02:15:28;;;;;;;40.40;12.40;;;5.40;99.90;;;;;;5006199;28;20061;-89
2024/01/14 02:17:54;;;;;;;46.85;13.23;;;5.40;99.90;;;;;;5016376;28;20060;-89
2024/01/14 02:20:19;;;;;;;40.03;13.60;;;5.40;99.90;;;;;;5014269;28;20036;-89
2024/01/14 02:22:48;;;;;;;42.25;13.57;;;5.40;99.90;;;;;;5016077;28;20040;-89
2024/01/14 02:25:13;;;;;;;38.90;13.73;;;5.40;99.90;;;;;;5028419;28;20030;-90
2024/01/14 02:27:40;;;;;;;38.28;14.05;;;5.40;99.90;;;;;;5014418;28;20017;-89
2024/01/14 02:30:09;;;;;;;38.17;13.70;;;5.40;99.90;;;;;;5028381;28;20050;-88
2024/01/14 02:32:37;;;;;;;43.97;14.00;;;5.50;99.90;;;;;;5034319;28;20080;-89
2024/01/14 02:35:05;;;;;;;45.05;15.32;;;5.50;99.90;;;;;;5014095;28;20026;-89
2024/01/14 02:37:31;;;;;;;35.72;13.02;;;5.40;99.90;;;;;;5029031;28;20029;-89
2024/01/14 02:39:57;;;;;;;43.00;14.18;;;5.50;99.90;;;;;;5030954;28;20045;-89
2024/01/14 02:42:22;;;;;;;37.95;14.10;;;5.50;99.90;;;;;;5014338;28;20491;-89
2024/01/14 02:44:48;;;;;;;44.30;14.10;;;5.40;99.90;;;;;;5041114;28;20560;-89
2024/01/14 02:47:14;;;;;;;39.67;12.48;;;5.40;99.90;;;;;;5024481;28;20550;-89
2024/01/14 02:49:39;;;;;;;38.80;13.93;;;5.40;99.90;;;;;;5015781;28;20021;-89
2024/01/14 02:52:05;;;;;;;42.97;13.30;;;5.40;99.90;;;;;;5028461;28;20031;-88
2024/01/14 02:54:30;;;;;;;45.72;13.15;;;5.40;99.90;;;;;;5014473;28;20103;-89
2024/01/14 02:56:56;;;;;;;39.45;13.82;;;5.40;99.90;;;;;;5049623;28;20021;-89
2024/01/14 02:59:21;;;;;;;38.83;14.23;;;5.40;99.90;;;;;;5020022;28;20018;-89
2024/01/14 03:01:47;;;;;;;42.85;14.05;;;5.40;99.90;;;;;;5015164;28;20480;-89
2024/01/14 03:04:13;;;;;;;39.35;13.68;;;5.40;99.90;;;;;;5014292;28;20483;-88
2024/01/14 03:06:38;;;;;;;45.90;14.90;;;5.40;99.90;;;;;;5014667;28;20032;-88
2024/01/14 03:09:06;;;;;;;51.42;13.85;;;5.40;99.90;;;;;;5018539;28;20021;-89
2024/01/14 03:11:33;;;;;;;46.65;13.43;;;5.40;99.90;;;;;;5023383;28;20022;-90
2024/01/14 03:13:59;;;;;;;37.72;12.80;;;5.40;99.90;;;;;;5040356;28;20055;-89
2024/01/14 03:16:24;;;;;;;54.17;14.68;;;5.40;99.90;;;;;;5019195;28;20025;-89
2024/01/14 03:18:50;;;;;;;40.50;14.40;;;5.40;99.90;;;;;;5031676;28;20064;-89
2024/01/14 03:21:17;;;;;;;41.10;13.55;;;5.40;99.90;;;;;;5015195;28;20033;-89
2024/01/14 03:23:43;;;;;;;45.88;13.43;;;5.40;99.90;;;;;;5028084;28;20064;-89
2024/01/14 03:26:08;;;;;;;38.75;13.60;;;5.40;99.90;;;;;;5030212;28;20049;-89
2024/01/14 03:28:34;;;;;;;44.10;13.85;;;5.30;99.90;;;;;;5017392;28;20029;-88
2024/01/14 03:31:00;;;;;;;34.30;12.27;;;5.30;99.90;;;;;;5014171;28;20076;-89
2024/01/14 03:33:26;;;;;;;33.90;12.73;;;5.30;99.90;;;;;;5015254;28;20802;-89
2024/01/14 03:35:51;;;;;;;42.60;14.30;;;5.30;99.90;;;;;;5028400;28;20029;-89
2024/01/14 03:38:17;;;;;;;37.33;12.45;;;5.30;99.90;;;;;;5040502;28;20578;-88
2024/01/14 03:40:42;;;;;;;39.70;12.75;;;5.30;99.90;;;;;;5043177;28;20033;-89
2024/01/14 03:43:08;;;;;;;40.50;12.65;;;5.30;99.90;;;;;;5045959;28;20029;-89
2024/01/14 03:45:33;;;;;;;44.58;12.80;;;5.30;99.90;;;;;;5034352;28;20021;-89
2024/01/14 03:47:59;;;;;;;41.78;13.93;;;5.30;99.90;;;;;;5012415;28;20399;-88
2024/01/14 03:50:24;;;;;;;38.42;14.05;;;5.40;99.90;;;;;;5021681;28;20032;-89
2024/01/14 03:52:50;;;;;;;37.38;12.70;;;5.40;99.90;;;;;;5027174;28;20505;-89
2024/01/14 03:55:16;;;;;;;34.35;12.20;;;5.40;99.90;;;;;;5040737;28;20447;-89
2024/01/14 03:57:41;;;;;;;36.65;12.40;;;5.40;99.90;;;;;;5024724;28;20642;-89
2024/01/14 04:00:08;;;;;;;38.35;11.57;;;5.40;99.90;;;;;;5035544;28;20099;-89
2024/01/14 04:02:34;;;;;;;40.95;13.85;;;5.40;99.90;;;;;;5020243;28;20026;-89
2024/01/14 04:04:59;;;;;;;34.60;11.63;;;5.40;99.90;;;;;;5032887;28;20030;-89
2024/01/14 04:07:25;;;;;;;36.58;12.38;;;5.50;99.90;;;;;;5041064;28;20025;-89
2024/01/14 04:09:50;;;;;;;39.22;13.93;;;5.40;99.90;;;;;;5018870;28;20053;-88
2024/01/14 04:12:16;;;;;;;36.28;11.93;;;5.50;99.90;;;;;;5042561;28;20068;-89
2024/01/14 04:14:43;;;;;;;36.00;12.48;;;5.40;99.90;;;;;;5017012;28;20033;-89
2024/01/14 04:17:09;;;;;;;36.15;13.52;;;5.40;99.90;;;;;;5023716;28;20030;-88
2024/01/14 04:19:36;;;;;;;36.92;12.18;;;5.40;99.90;;;;;;5024786;28;20029;-89
2024/01/14 04:22:02;;;;;;;37.45;11.73;;;5.50;99.90;;;;;;5016433;28;20025;-89
2024/01/14 04:24:28;;;;;;;38.05;12.57;;;5.40;99.90;;;;;;5033013;28;20026;-89
2024/01/14 04:26:53;;;;;;;32.38;11.65;;;5.40;99.90;;;;;;5036908;28;20028;-87
2024/01/14 04:29:19;;;;;;;36.60;12.25;;;5.50;99.90;;;;;;5017227;28;20029;-89
2024/01/14 04:31:44;;;;;;;37.25;12.20;;;5.50;99.90;;;;;;5041655;28;20025;-89
2024/01/14 04:34:10;;;;;;;31.77;12.25;;;5.40;99.90;;;;;;5038138;28;20116;-89
2024/01/14 04:36:35;;;;;;;38.15;12.60;;;5.40;99.90;;;;;;5027002;28;20469;-89
2024/01/14 04:39:01;;;;;;;38.25;13.35;;;5.40;99.90;;;;;;5015228;28;20546;-89
2024/01/14 04:41:26;;;;;;;40.08;14.00;;;5.40;99.90;;;;;;5039004;28;20052;-88
2024/01/14 04:43:52;;;;;;;34.42;13.90;;;5.40;99.90;;;;;;5017776;28;20030;-89
2024/01/14 04:46:19;;;;;;;39.20;13.27;;;5.40;99.90;;;;;;5043928;28;20113;-88
2024/01/14 04:48:44;;;;;;;27.52;11.52;;;5.40;99.90;;;;;;5035423;28;20495;-88
2024/01/14 04:51:10;;;;;;;41.42;13.70;;;5.40;99.90;;;;;;5028238;28;20028;-89
2024/01/14 04:53:35;;;;;;;41.45;14.20;;;5.40;99.90;;;;;;5016700;28;20056;-89
2024/01/14 04:56:07;;;;;;;33.30;12.23;;;5.40;99.90;;;;;;5015651;28;20037;-90
2024/01/14 04:58:32;;;;;;;38.58;13.50;;;5.40;99.90;;;;;;5015699;28;20025;-89
2024/01/14 05:00:58;;;;;;;34.30;12.30;;;5.40;99.90;;;;;;5035089;28;20025;-89
2024/01/14 05:03:24;;;;;;;38.80;11.70;;;5.40;99.90;;;;;;5015856;28;20488;-88
2024/01/14 05:05:49;;;;;;;40.83;14.25;;;5.40;99.90;;;;;;5033232;28;20033;-88
2024/01/14 05:08:15;;;;;;;44.92;14.15;;;5.40;99.90;;;;;;5015537;28;20030;-89
2024/01/14 05:10:40;;;;;;;35.92;12.90;;;5.40;99.90;;;;;;5040401;28;20033;-89
2024/01/14 05:13:06;;;;;;;32.72;12.55;;;5.40;99.90;;;;;;5032980;28;20029;-87
2024/01/14 05:15:31;;;;;;;40.35;13.00;;;5.40;99.90;;;;;;5033204;28;20030;-90
2024/01/14 05:17:57;;;;;;;38.78;12.60;;;5.40;99.90;;;;;;5036394;28;20120;-89
2024/01/14 05:20:22;;;;;;;42.28;12.20;;;5.40;99.90;;;;;;5015581;28;20445;-88
2024/01/14 05:22:48;;;;;;;39.67;12.50;;;5.30;99.90;;;;;;5041069;28;20498;-89
2024/01/14 05:25:14;;;;;;;38.88;12.30;;;5.30;99.90;;;;;;5038823;28;20053;-90
2024/01/14 05:27:39;;;;;;;40.53;12.88;;;5.40;99.90;;;;;;5024896;28;20033;-89
2024/01/14 05:30:06;;;;;;;40.35;12.50;;;5.30;99.90;;;;;;5023310;28;20029;-89
2024/01/14 05:32:31;;;;;;;41.35;13.93;;;5.40;99.90;;;;;;5032692;28;20068;-89
2024/01/14 05:34:57;;;;;;;47.25;13.07;;;5.40;99.90;;;;;;5039334;28;20057;-89
2024/01/14 05:37:23;;;;;;;37.75;13.38;;;5.40;99.90;;;;;;5015026;28;20025;-88
2024/01/14 05:39:48;;;;;;;39.78;12.75;;;5.40;99.90;;;;;;5040679;28;20033;-90
2024/01/14 05:42:14;;;;;;;37.70;12.40;;;5.40;99.90;;;;;;5044840;28;20040;-89
2024/01/14 05:44:40;;;;;;;40.13;13.30;;;5.40;99.90;;;;;;5018731;28;20091;-88
2024/01/14 05:47:05;;;;;;;39.90;12.38;;;5.40;99.90;;;;;;5035566;28;21831;-89
2024/01/14 05:49:31;;;;;;;36.58;12.93;;;5.40;99.90;;;;;;5040002;28;20025;-90
2024/01/14 05:51:56;;;;;;;41.10;12.95;;;5.40;99.90;;;;;;5032447;28;20043;-89
2024/01/14 05:54:22;;;;;;;36.55;12.23;;;5.40;99.90;;;;;;5026267;28;20051;-88
2024/01/14 05:56:47;;;;;;;37.38;13.75;;;5.40;99.90;;;;;;5025667;28;20028;-88
2024/01/14 05:59:13;;;;;;;43.20;14.07;;;5.40;99.90;;;;;;5023301;28;20021;-89
2024/01/14 06:01:39;;;;;;;41.55;13.40;;;5.40;99.90;;;;;;5014674;28;20040;-89
2024/01/14 06:04:05;;;;;;;44.33;12.32;;;5.40;99.90;;;;;;5038060;28;20021;-88
2024/01/14 06:06:30;;;;;;;39.08;14.32;;;5.40;99.90;;;;;;5036617;28;20717;-89
2024/01/14 06:08:56;;;;;;;43.95;13.63;;;5.40;99.90;;;;;;5014649;28;20514;-88
2024/01/14 06:11:21;;;;;;;38.90;13.15;;;5.40;99.90;;;;;;5035432;28;20044;-89
2024/01/14 06:13:47;;;;;;;40.25;12.65;;;5.40;99.90;;;;;;5021858;28;20061;-89
2024/01/14 06:16:13;;;;;;;41.40;13.40;;;5.40;99.90;;;;;;5031806;28;20095;-88
2024/01/14 06:18:41;;;;;;;44.78;13.93;;;5.40;99.90;;;;;;5040408;28;20033;-89
2024/01/14 06:21:07;;;;;;;38.63;13.88;;;5.40;99.90;;;;;;5024344;28;20438;-89
2024/01/14 06:23:34;;;;;;;37.92;13.55;;;5.40;99.90;;;;;;5014893;28;20025;-89
2024/01/14 06:25:59;;;;;;;42.13;13.70;;;5.40;99.90;;;;;;5017696;28;20029;-89
2024/01/14 06:28:25;;;;;;;38.30;13.63;;;5.40;99.90;;;;;;5018776;28;20018;-89
2024/01/14 06:30:51;;;;;;;45.10;14.45;;;5.40;99.90;;;;;;5015754;28;20033;-89
2024/01/14 06:33:17;;;;;;;40.47;13.13;;;5.40;99.90;;;;;;5026073;28;20395;-90
2024/01/14 06:35:42;;;;;;;43.88;15.00;;;5.40;99.90;;;;;;5036445;28;20022;-89
2024/01/14 06:38:08;;;;;;;47.85;14.38;;;5.40;99.90;;;;;;5016234;28;20025;-90
2024/01/14 06:40:34;;;;;;;41.80;15.73;;;5.40;99.90;;;;;;5020191;28;20399;-89
2024/01/14 06:43:00;;;;;;;41.95;13.85;;;5.40;99.90;;;;;;5014399;28;20049;-89
2024/01/14 06:45:25;;;;;;;44.53;13.75;;;5.40;99.90;;;;;;5014326;28;20028;-89
2024/01/14 06:47:51;;;;;;;47.67;14.93;;;5.40;99.90;;;;;;5031887;28;20037;-89
2024/01/14 06:50:17;;;;;;;42.45;15.63;;;5.40;99.90;;;;;;5034952;28;20394;-88
2024/01/14 06:52:42;;;;;;;42.67;13.50;;;5.40;99.90;;;;;;5032178;28;20471;-88
2024/01/14 06:55:08;;;;;;;40.95;14.63;;;5.40;99.90;;;;;;5013334;28;20022;-89
2024/01/14 06:57:34;;;;;;;40.97;14.27;;;5.40;99.90;;;;;;5042398;28;20033;-89
2024/01/14 07:00:00;;;;;;;36.38;13.93;;;5.40;99.90;;;;;;5017521;28;20029;-88
2024/01/14 07:02:26;;;;;;;46.72;13.02;;;5.40;99.90;;;;;;5017687;28;20028;-88
2024/01/14 07:04:52;;;;;;;39.60;15.20;;;5.40;99.90;;;;;;5034331;28;20025;-89
2024/01/14 07:07:18;;;;;;;40.03;14.35;;;5.40;99.90;;;;;;5017447;28;20014;-89
2024/01/14 07:09:43;;;;;;;39.78;13.38;;;5.40;99.90;;;;;;5017747;28;20487;-88
2024/01/14 07:12:09;;;;;;;45.55;14.07;;;5.40;99.90;;;;;;5017499;28;20018;-90
2024/01/14 07:14:35;;;;;;;38.22;13.93;;;5.40;99.90;;;;;;5023009;28;20467;-88
2024/01/14 07:17:00;;;;;;;39.17;14.05;;;5.40;99.90;;;;;;5019352;28;20036;-89
2024/01/14 07:19:26;;;;;;;45.38;16.27;;;5.40;99.90;;;;;;5021398;28;20020;-87
2024/01/14 07:21:52;;;;;;;44.35;14.60;;;5.40;99.90;;;;;;5021607;28;20013;-87
2024/01/14 07:24:17;;;;;;;44.13;14.25;;;5.40;99.90;;;;;;5025464;28;20056;-89
2024/01/14 07:26:43;;;;;;;45.15;15.10;;;5.40;99.90;;;;;;5022267;28;20068;-87
2024/01/14 07:29:08;;;;;;;45.30;14.52;;;5.40;99.90;;;;;;5020931;28;20372;-89
2024/01/14 07:31:34;;;;;;;41.65;15.65;;;5.40;99.90;;;;;;5017550;28;20025;-90
2024/01/14 07:33:59;;;;;;;42.28;14.18;;;5.40;99.90;;;;;;5027705;28;20056;-89
2024/01/14 07:36:25;;;;;;;49.17;15.20;;;5.40;99.90;;;;;;5034849;28;20097;-88
2024/01/14 07:38:51;;;;;;;48.13;15.23;;;5.40;99.90;;;;;;5043230;28;20021;-88
2024/01/14 07:41:17;;;;;;;39.72;14.00;;;5.40;99.90;;;;;;5016953;28;20215;-89
2024/01/14 07:43:43;;;;;;;42.70;14.15;;;5.40;99.90;;;;;;5040985;28;20056;-88
2024/01/14 07:46:09;;;;;;;50.67;14.15;;;5.40;99.90;;;;;;5015229;28;20046;-89
2024/01/14 07:48:35;;;;;;;46.22;15.82;;;5.40;99.90;;;;;;5016790;28;20022;-89
2024/01/14 07:51:02;;;;;;;37.83;13.50;;;5.40;99.90;;;;;;5027687;28;20082;-89
2024/01/14 07:53:27;;;;;;;44.15;13.85;;;5.50;99.90;;;;;;5038474;28;20375;-88
2024/01/14 07:55:53;;;;;;;38.85;13.38;;;5.40;99.90;;;;;;5042642;28;20471;-89
2024/01/14 07:58:19;;;;;;;47.35;15.70;;;5.40;99.90;;;;;;5017131;28;20530;-88
2024/01/14 08:00:45;;;;;;;50.58;14.73;;;5.40;99.90;;;;;;5017060;28;20040;-88
2024/01/14 08:03:11;;;;;;;40.97;15.02;;;5.50;99.90;;;;;;5016544;28;20033;-87
2024/01/14 08:05:38;;;;;;;42.08;14.05;;;5.50;99.90;;;;;;5042313;28;20018;-90
2024/01/14 08:08:04;;;;;;;52.90;14.70;;;5.50;99.90;;;;;;5051350;28;20024;-90
2024/01/14 08:10:30;;;;;;;47.47;15.55;;;5.50;99.90;;;;;;5046755;28;20057;-92
2024/01/14 08:12:56;;;;;;;40.72;14.43;;;5.50;99.90;;;;;;5035234;28;20045;-87
2024/01/14 08:15:22;;;;;;;187.35;17.45;;;5.50;99.90;;;;;;5021367;28;20027;-88
2024/01/14 08:17:47;;;;;;;116.40;13.45;;;7.30;99.90;;;;;;5040201;28;20068;-88
2024/01/14 08:20:13;;;;;;;87.25;13.38;;;9.20;99.90;;;;;;5036505;28;20033;-88
2024/01/14 08:22:39;;;;;;;53.33;13.13;;;9.80;98.00;;;;;;5016959;28;20032;-86
2024/01/14 08:25:05;;;;;;;44.95;14.55;;;10.00;95.20;;;;;;5035331;28;20441;-84
2024/01/14 08:27:31;;;;;;;36.13;12.88;;;10.60;90.70;;;;;;5012586;28;20116;-85
2024/01/14 08:29:57;;;;;;;48.22;12.68;;;11.00;86.40;;;;;;5029532;28;20032;-85
2024/01/14 08:32:23;;;;;;;31.73;11.43;;;11.40;83.10;;;;;;5019306;28;20013;-85
2024/01/14 08:34:48;;;;;;;35.95;11.73;;;11.60;80.40;;;;;;5014040;28;20083;-87
2024/01/14 08:37:14;;;;;;;37.63;13.05;;;11.50;80.10;;;;;;5034585;28;20420;-87
2024/01/14 08:39:40;;;;;;;31.70;12.68;;;11.40;80.60;;;;;;5016381;28;20063;-87
2024/01/14 08:42:05;;;;;;;37.40;13.02;;;11.40;79.50;;;;;;5014958;28;20072;-85
2024/01/14 08:44:31;;;;;;;37.25;11.85;;;11.20;81.60;;;;;;5014931;28;20021;-86
2024/01/14 08:46:56;;;;;;;39.50;12.43;;;11.40;77.50;;;;;;5029168;28;20026;-86
2024/01/14 08:49:24;;;;;;;25.25;11.23;;;11.40;75.60;;;;;;5022979;28;20487;-86
2024/01/14 08:51:50;;;;;;;31.20;11.52;;;11.40;76.30;;;;;;5012640;28;20554;-85
2024/01/14 08:54:15;;;;;;;28.38;11.05;;;11.40;74.50;;;;;;5033327;28;20025;-85
2024/01/14 08:56:41;;;;;;;32.10;11.73;;;11.60;73.80;;;;;;5029885;28;20026;-86
2024/01/14 08:59:06;;;;;;;34.08;11.88;;;11.60;74.10;;;;;;5017961;28;20028;-85
2024/01/14 09:01:32;;;;;;;35.63;11.80;;;11.50;73.30;;;;;;5020568;28;20036;-86
2024/01/14 09:03:57;;;;;;;26.55;11.32;;;11.70;70.60;;;;;;5032700;28;20032;-86
2024/01/14 09:06:23;;;;;;;27.27;11.30;;;11.50;71.70;;;;;;5037674;28;20029;-87
2024/01/14 09:08:49;;;;;;;29.73;11.25;;;11.70;69.80;;;;;;5013475;28;20109;-86
2024/01/14 09:11:15;;;;;;;32.28;11.82;;;11.60;70.70;;;;;;5029027;28;20028;-86
2024/01/14 09:13:40;;;;;;;29.35;11.00;;;11.60;69.90;;;;;;5020313;28;20024;-86
2024/01/14 09:16:06;;;;;;;33.22;11.77;;;11.70;69.10;;;;;;5018839;28;20522;-85
2024/01/14 09:18:32;;;;;;;28.02;10.73;;;11.60;68.90;;;;;;5036498;28;20502;-85
2024/01/14 09:20:57;;;;;;;38.17;11.98;;;11.50;70.40;;;;;;5013243;28;20048;-85
2024/01/14 09:23:23;;;;;;;26.55;10.85;;;11.60;69.40;;;;;;5028022;28;20053;-86
2024/01/14 09:25:48;;;;;;;35.13;11.23;;;11.70;68.80;;;;;;5014288;28;20028;-87
2024/01/14 09:28:14;;;;;;;27.23;10.77;;;11.60;69.20;;;;;;5031732;28;20385;-85
2024/01/14 09:30:39;;;;;;;25.45;10.70;;;11.60;69.00;;;;;;5015126;28;20040;-86
2024/01/14 09:33:05;;;;;;;31.02;12.35;;;11.60;68.70;;;;;;5015383;28;20021;-86
2024/01/14 09:35:31;;;;;;;28.02;10.50;;;11.80;67.30;;;;;;5013118;28;20491;-86
2024/01/14 09:37:57;;;;;;;24.05;10.15;;;11.70;67.40;;;;;;5027747;28;20028;-85
2024/01/14 09:40:23;;;;;;;24.52;10.40;;;11.90;65.90;;;;;;5021457;28;20478;-85
2024/01/14 09:42:50;;;;;;;26.27;10.32;;;11.80;66.60;;;;;;5034573;28;20108;-86
2024/01/14 09:45:16;;;;;;;32.72;10.13;;;11.80;66.60;;;;;;5033345;28;20029;-86
2024/01/14 09:47:43;;;;;;;27.95;10.82;;;11.70;67.00;;;;;;5024316;28;20471;-86
2024/01/14 09:50:10;;;;;;;26.88;11.43;;;11.70;67.40;;;;;;5028183;28;20032;-85
2024/01/14 09:52:39;;;;;;;31.77;12.05;;;11.70;67.60;;;;;;5030078;28;20044;-86
2024/01/14 09:55:06;;;;;;;30.25;10.85;;;11.70;66.60;;;;;;5014801;28;20037;-85
2024/01/14 09:57:34;;;;;;;29.40;10.40;;;11.70;65.60;;;;;;5032170;28;20025;-84
2024/01/14 10:00:05;;;;;;;24.75;10.38;;;11.70;66.30;;;;;;5031652;28;20100;-85
2024/01/14 10:02:35;;;;;;;29.92;9.88;;;11.70;66.40;;;;;;5014009;28;20036;-86
2024/01/14 10:05:01;;;;;;;28.42;10.43;;;11.70;66.50;;;;;;5034184;28;20034;-86
2024/01/14 10:07:26;;;;;;;29.30;10.70;;;11.40;68.10;;;;;;5037043;28;20105;-84
2024/01/14 10:09:52;;;;;;;27.77;11.50;;;11.30;69.20;;;;;;5013557;28;20021;-85
2024/01/14 10:12:18;;;;;;;29.98;11.10;;;11.40;69.00;;;;;;5027745;28;20052;-86
2024/01/14 10:14:44;;;;;;;34.30;12.48;;;11.20;68.00;;;;;;5016045;28;20048;-85
2024/01/14 10:17:13;;;;;;;30.00;10.85;;;11.30;67.70;;;;;;5035870;28;20479;-85
2024/01/14 10:19:39;;;;;;;30.38;10.70;;;11.50;67.30;;;;;;5026106;28;20025;-86
2024/01/14 10:22:05;;;;;;;34.05;11.52;;;11.20;68.20;;;;;;5012247;28;20032;-84
2024/01/14 10:24:32;;;;;;;33.78;11.57;;;11.10;68.50;;;;;;5023866;28;20124;-84
2024/01/14 10:26:57;;;;;;;27.92;12.18;;;11.10;68.50;;;;;;5012057;28;20030;-85
2024/01/14 10:29:24;;;;;;;31.63;11.80;;;10.90;69.20;;;;;;5037319;28;20033;-86
2024/01/14 10:31:49;;;;;;;28.75;12.25;;;10.90;68.10;;;;;;5035070;28;20026;-85
2024/01/14 10:34:19;;;;;;;35.88;12.20;;;11.00;67.60;;;;;;5015286;28;20030;-85
2024/01/14 10:36:46;;;;;;;30.00;11.43;;;11.20;65.70;;;;;;5016828;28;20029;-85
2024/01/14 10:39:12;;;;;;;35.03;12.80;;;11.30;65.30;;;;;;5030413;28;20476;-85
2024/01/14 10:41:38;;;;;;;31.52;11.68;;;11.20;65.50;;;;;;5019223;28;20036;-85
2024/01/14 10:44:04;;;;;;;31.00;11.10;;;11.30;65.70;;;;;;5017311;28;20021;-85
2024/01/14 10:46:30;;;;;;;29.17;11.73;;;11.00;66.70;;;;;;5031551;28;20033;-85
2024/01/14 10:49:08;;;;;;;27.42;11.27;;;11.20;65.90;;;;;;5033947;28;20017;-85
2024/01/14 10:51:42;;;;;;;29.30;11.98;;;11.20;65.60;;;;;;5035974;28;20045;-86
2024/01/14 10:54:19;;;;;;;30.00;11.13;;;11.60;63.20;;;;;;5017177;28;20022;-86
2024/01/14 10:56:50;;;;;;;29.55;10.80;;;11.60;63.10;;;;;;5033830;28;20043;-85
2024/01/14 10:59:20;;;;;;;30.33;9.98;;;11.80;61.20;;;;;;5018055;28;20022;-85
2024/01/14 11:01:54;;;;;;;30.27;10.45;;;11.80;61.00;;;;;;5032443;28;20056;-85
2024/01/14 11:04:21;;;;;;;26.40;10.40;;;11.70;61.40;;;;;;5030472;28;20045;-84
2024/01/14 11:06:48;;;;;;;25.17;10.40;;;11.70;62.10;;;;;;5034978;28;20534;-86
2024/01/14 11:09:14;;;;;;;28.40;11.00;;;11.60;62.50;;;;;;5017604;28;20025;-86
2024/01/14 11:11:51;;;;;;;27.45;10.23;;;11.70;62.20;;;;;;5035670;28;20044;-85
2024/01/14 11:14:28;;;;;;;26.95;10.10;;;11.60;63.20;;;;;;5030569;28;20022;-85
2024/01/14 11:17:02;;;;;;;24.58;9.68;;;11.60;63.00;;;;;;5034194;28;20499;-85
2024/01/14 11:19:31;;;;;;;29.30;10.70;;;11.80;61.50;;;;;;5020101;28;20120;-85
2024/01/14 11:22:18;;;;;;;30.55;11.40;;;11.80;61.10;;;;;;5012354;28;20026;-85
2024/01/14 11:24:44;;;;;;;24.85;10.57;;;11.70;61.90;;;;;;5032718;28;20029;-85
2024/01/14 11:27:09;;;;;;;28.58;10.48;;;11.40;63.70;;;;;;5014309;28;20036;-85
2024/01/14 11:29:37;;;;;;;32.90;12.30;;;11.70;63.20;;;;;;5020363;28;20014;-85
2024/01/14 11:32:09;;;;;;;30.00;11.48;;;11.80;61.00;;;;;;5013780;28;20080;-85
2024/01/14 11:34:47;;;;;;;33.90;11.77;;;11.80;61.10;;;;;;5039075;28;20049;-85
2024/01/14 11:37:32;;;;;;;21.40;9.38;;;11.70;61.60;;;;;;5032489;28;20144;-85
2024/01/14 11:40:08;;;;;;;24.30;10.73;;;11.60;62.70;;;;;;5026553;28;20377;-84
2024/01/14 11:42:38;;;;;;;25.95;10.48;;;11.60;62.20;;;;;;5018981;28;20036;-86
2024/01/14 11:45:13;;;;;;;36.25;11.32;;;11.40;63.30;;;;;;5013875;28;20037;-85
2024/01/14 11:47:46;;;;;;;26.77;10.77;;;11.60;62.40;;;;;;5032749;28;20030;-85
2024/01/14 11:50:14;;;;;;;25.75;10.43;;;11.70;61.80;;;;;;5028864;28;20418;-86
2024/01/14 11:52:45;;;;;;;30.20;10.50;;;11.60;62.20;;;;;;5020986;28;20031;-85
2024/01/14 11:55:17;;;;;;;35.60;12.15;;;11.30;64.10;;;;;;5020259;28;20032;-85
2024/01/14 11:57:44;;;;;;;26.20;10.32;;;11.30;63.50;;;;;;5035310;28;20037;-84
2024/01/14 12:00:11;;;;;;;29.48;12.38;;;11.40;62.20;;;;;;5013914;28;20044;-85
2024/01/14 12:02:37;;;;;;;29.70;11.27;;;11.80;60.40;;;;;;5018335;28;20021;-85
2024/01/14 12:05:19;;;;;;;26.15;10.75;;;11.80;60.90;;;;;;5029807;28;20514;-86
2024/01/14 12:07:46;;;;;;;30.10;11.15;;;11.70;61.10;;;;;;5036617;28;20029;-85
2024/01/14 12:10:15;;;;;;;27.38;10.90;;;11.60;61.20;;;;;;5030930;28;20113;-84
2024/01/14 12:12:42;;;;;;;27.15;10.18;;;11.40;62.20;;;;;;5035756;28;20111;-84
2024/01/14 12:15:11;;;;;;;28.40;11.65;;;11.60;60.90;;;;;;5016502;28;20121;-85
2024/01/14 12:17:37;;;;;;;28.25;10.90;;;11.70;60.60;;;;;;5037651;28;20612;-85
2024/01/14 12:20:08;;;;;;;26.15;11.43;;;11.60;60.70;;;;;;5021982;28;20028;-85
2024/01/14 12:22:35;;;;;;;29.95;11.85;;;11.60;60.90;;;;;;5035166;28;20087;-86
2024/01/14 12:25:01;;;;;;;25.60;10.88;;;11.50;61.70;;;;;;5033871;28;20084;-85
2024/01/14 12:27:27;;;;;;;24.20;11.23;;;11.40;62.20;;;;;;5016121;28;20037;-85
2024/01/14 12:29:52;;;;;;;32.03;11.55;;;11.70;61.20;;;;;;5037883;28;20009;-85